KNTU Airport (Oceana Nas /Apollo Soucek Field/) Information

FAA: NTU - ICAO: KNTU

KNTU Airport Location

State Virginia
County Virginia Beach
City Virginia Beach
KNTU Airport is 3 miles southwest of Virginia Beach, VA.
Latitude 36-49-21.8710N
Longitude 076-01-54.8276W
Elevation 22ft

KNTU Airport METARs

METAR KNTU 302056Z 05021G41KT 1 1/2SM +RA BR BKN007 OVC012 18/18 A2983 RMK AO2 PK WND 07041/2052 SLP104 P0041 60102 T01830183 57032
Altimeter 29.83"
Temperature 18.3°C (64.9°F)
Wind 50° at 21KT with gusts to 41KT
Clouds broken at 700ft overcast at 1,200ft
Visibility 1.5mi
Time observed: 2022-09-30T20:56:00Z

KNTU Airport Details

Status Operational
Activation August 1943
Ownership Military - Navy
Usage Private
Chart WASHINGTON
ATC on-site Yes
Beacon schedule sunset-sunrise
Beacon color split clear green

KNTU Airport Contacts

Owner U.S. NAVY
Owner address OCEANOGRAPHIC OFC-CODE 3142, WASHINGTON, DC 20373
Owner phone N/A
Manager TODD HOWELL
Manager address 1755 N. MECKLENBURG AVE., SOUTH HILL, VA 23970
Manager phone 434-447-3151

KNTU Airport (Oceana Nas /Apollo Soucek Field/) Radio Frequencies

KNTU (Airport) Radio Frequencies

UNICOM N/A
Common traffic advisory frequency (CTAF) N/A